East Greenville, PA (18041)

7:01 PM EST on January 23, 2017 (GMT -0500)
Palm Hill | | Change Station
Active Advisory: Gale Warning

Elev 509 ft 40.42 °N, 75.54 °W | Updated 3 minutes ago

Rain
Rain
35.1 °F
Feels Like 33 °F
N
3.1
Wind Variable Wind from North
Gusts 10.0 mph

Today
High -- | Low -- °F
--% Chance of Precip.
Yesterday
High -- | Low -- °F
Precip. -- in
Pressure 29.59 in
Visibility 3.0 miles
Clouds Few 100 ft
Overcast 1400 ft
Windchill 33 °F
Dew Point 33 °F
Humidity 94%
Rainfall 0.39 in
Snow Depth Not available.
7:18 AM 5:09 PM
Waning Crescent, 15% visible
METAR KUKT 232355Z AUTO 06009G16KT 3SM FEW001 OVC014 02/00 A2959 RMK AO1 P0008
Pressure 29.59 in
Visibility 3.0 miles
Clouds Few 100 ft
Overcast 1400 ft
Windchill 33 °F
Dew Point 33 °F
Humidity 94%
Rainfall 0.39 in
Snow Depth Not available.
7:18 AM 5:09 PM
Waning Crescent, 15% visible
METAR KUKT 232355Z AUTO 06009G16KT 3SM FEW001 OVC014 02/00 A2959 RMK AO1 P0008

Get Your Daily Forecast Email!

Thanks for signing up!

Be on the lookout for a verification email in your inbox.

You'll start receiving the daily forecast at 8 AM.

×

10-Day Weather Forecast

Almanac

Astronomy

Jan. 23, 2017 Rise Set
Actual Time
Civil Twilight
Nautical Twilight
Astronomical Twilight
Moon
Length of Visible Light
Length of Day
Tomorrow will be .
, % of the Moon is Illuminated

Today's Extremes

State Highs State Lows

Community

WunderPhotos

Upload Photos

1,962,540 photos uploaded!

WunderBlog® & News

Nearby

Air Quality

  Air Quality AQ Index Pollutant
Not available.

Snow Depth

Station Depth Elevation

Earthquake Activity

City Distance Mag. Time & Date
Minimum magnitude displayed is 2.5.

Coastal Water Temperatures

Place Temperature

Stations

Nearby Weather Stations

Station Location Temp. Windchill Dew Point Humidity Wind Precip. Elev Updated Type
                   

Watches & Warnings

Gale Warning
Issued: 5:51 PM EST Jan. 23, 2017 – National Weather Service

... Gale Warning in effect until midnight EST tonight...
... Storm Warning is cancelled...

The National Weather Service in Mount Holly has issued a Gale
Warning... which is in effect until midnight EST tonight. The
Storm Warning has been cancelled.

* Location... upper Delaware Bay.

* Winds... northeast 20 to 25 kt with gusts up to 40 kt.

* Seas... 3 to 4 feet.

Precautionary/preparedness actions...

A Gale Warning means winds of 34 to 47 knots are imminent or
occurring. Operating a vessel in gale conditions requires
experience and properly equipped vessels. It is highly
recommended that mariners without the proper experience seek safe
Harbor prior to the onset of gale conditions.